Time;durP1;ratioP1;P1;durP2;ratioP2;P2;SDS_P1;SDS_P2;PMS_P1;PMS_P2;Temp;Humidity;BMP_temperature;BMP_pressure;BME280_temperature;BME280_humidity;BME280_pressure;Samples;Min_cycle;Max_cycle;Signal;HPM_P1;HPM_P2
2020/12/01 00:01:50;;;;;;;21.58;14.95;;;5.60;99.90;;;;;;3433825;41;20101;-74
2020/12/01 00:04:15;;;;;;;21.02;14.13;;;5.40;99.90;;;;;;3433732;41;20132;-74
2020/12/01 00:06:41;;;;;;;16.30;11.95;;;5.30;99.90;;;;;;3442523;41;20208;-74
2020/12/01 00:09:08;;;;;;;14.63;10.98;;;5.30;99.90;;;;;;3443314;41;20628;-74
2020/12/01 00:11:33;;;;;;;14.95;10.07;;;5.40;99.90;;;;;;3443679;33;20127;-74
2020/12/01 00:13:59;;;;;;;15.48;10.82;;;5.60;99.90;;;;;;3440195;41;20220;-74
2020/12/01 00:16:25;;;;;;;15.07;10.20;;;5.60;99.90;;;;;;3435749;41;20210;-74
2020/12/01 00:18:51;;;;;;;14.05;9.77;;;5.60;99.90;;;;;;3435449;41;20139;-74
2020/12/01 00:21:19;;;;;;;14.57;10.35;;;5.60;99.90;;;;;;3435648;41;20605;-74
2020/12/01 00:23:46;;;;;;;14.02;9.95;;;5.70;99.90;;;;;;3444151;41;20208;-74
2020/12/01 00:26:16;;;;;;;14.48;10.43;;;5.70;99.90;;;;;;3445124;41;20187;-74
2020/12/01 00:28:42;;;;;;;15.68;11.10;;;5.90;99.90;;;;;;3444721;41;20143;-74
2020/12/01 00:31:08;;;;;;;14.30;10.02;;;5.80;99.90;;;;;;3439497;41;20203;-74
2020/12/01 00:33:34;;;;;;;13.20;10.07;;;5.90;99.90;;;;;;3435692;41;20119;-74
2020/12/01 00:36:01;;;;;;;14.20;10.60;;;5.90;99.90;;;;;;3435977;41;20140;-74
2020/12/01 00:38:27;;;;;;;17.15;11.63;;;5.80;99.90;;;;;;3435582;41;20108;-74
2020/12/01 00:40:53;;;;;;;14.15;10.68;;;5.80;99.90;;;;;;3439455;41;20548;-74
2020/12/01 00:43:18;;;;;;;14.40;10.93;;;5.80;99.90;;;;;;3444759;41;20108;-74
2020/12/01 00:45:45;;;;;;;16.17;10.98;;;5.80;99.90;;;;;;3444657;41;20131;-74
2020/12/01 00:48:12;;;;;;;17.00;12.43;;;5.90;99.90;;;;;;3445327;41;20200;-75
2020/12/01 00:50:38;;;;;;;16.13;11.98;;;5.80;99.90;;;;;;3442090;34;20128;-74
2020/12/01 00:53:04;;;;;;;17.77;12.18;;;5.70;99.90;;;;;;3435513;41;20130;-74
2020/12/01 00:55:30;;;;;;;17.95;13.00;;;5.70;99.90;;;;;;3430985;34;20159;-74
2020/12/01 00:57:56;;;;;;;20.95;14.10;;;5.70;99.90;;;;;;3428919;34;20124;-74
2020/12/01 01:00:29;;;;;;;17.77;13.15;;;5.70;99.90;;;;;;3428195;41;20287;-74
2020/12/01 01:02:54;;;;;;;18.80;13.75;;;5.60;99.90;;;;;;3446718;33;20138;-74
2020/12/01 01:05:20;;;;;;;21.33;14.18;;;5.50;99.90;;;;;;3444508;41;20123;-74
2020/12/01 01:07:47;;;;;;;18.65;13.65;;;5.50;99.90;;;;;;3441187;34;20115;-74
2020/12/01 01:10:43;;;;;;;18.92;13.77;;;5.50;99.90;;;;;;3435420;34;20148;-74
2020/12/01 01:13:09;;;;;;;21.35;15.23;;;5.40;99.90;;;;;;3430694;41;20108;-74
2020/12/01 01:15:35;;;;;;;22.65;15.65;;;5.30;99.90;;;;;;3435210;41;20119;-74
2020/12/01 01:18:02;;;;;;;25.60;16.20;;;5.20;99.90;;;;;;3439534;41;20116;-74
2020/12/01 01:20:29;;;;;;;22.30;16.95;;;5.20;99.90;;;;;;3444593;33;20196;-74
2020/12/01 01:22:56;;;;;;;21.27;16.17;;;5.00;99.90;;;;;;3444216;41;20116;-74
2020/12/01 01:25:23;;;;;;;23.15;16.45;;;5.10;99.90;;;;;;3443434;41;20638;-74
2020/12/01 01:27:49;;;;;;;20.42;15.13;;;5.10;99.90;;;;;;3447731;34;20162;-74
2020/12/01 01:30:17;;;;;;;22.20;16.35;;;5.10;99.90;;;;;;3435267;41;20115;-74
2020/12/01 01:32:43;;;;;;;22.15;16.27;;;5.20;99.90;;;;;;3487694;34;20193;-74
2020/12/01 01:35:09;;;;;;;23.10;16.60;;;5.10;99.90;;;;;;3449703;34;20657;-74
2020/12/01 01:37:35;;;;;;;22.20;17.08;;;5.20;99.90;;;;;;3435265;41;20116;-74
2020/12/01 01:40:03;;;;;;;23.58;17.10;;;5.20;99.90;;;;;;3434714;41;20907;-74
2020/12/01 01:42:28;;;;;;;22.17;17.45;;;5.10;99.90;;;;;;3504516;34;20127;-74
2020/12/01 01:44:54;;;;;;;21.63;16.55;;;5.10;99.90;;;;;;3439336;41;20199;-74
2020/12/01 01:47:22;;;;;;;25.58;18.05;;;5.00;99.90;;;;;;3444363;41;20172;-74
2020/12/01 01:50:06;;;;;;;23.92;17.92;;;5.00;99.90;;;;;;3444624;41;20112;-74
2020/12/01 01:52:40;;;;;;;23.58;17.67;;;5.00;99.90;;;;;;3444020;41;20151;-74
2020/12/01 01:55:08;;;;;;;26.55;19.02;;;4.90;99.90;;;;;;3439051;41;20112;-74
2020/12/01 01:57:35;;;;;;;23.17;17.45;;;4.90;99.90;;;;;;3443120;34;20620;-74
2020/12/01 02:00:06;;;;;;;25.30;18.92;;;4.90;99.90;;;;;;3440455;34;20193;-74
2020/12/01 02:02:32;;;;;;;22.75;17.02;;;4.80;99.90;;;;;;3437269;34;20168;-74
2020/12/01 02:04:57;;;;;;;22.42;16.45;;;4.90;99.90;;;;;;3437873;41;20112;-74
2020/12/01 02:07:25;;;;;;;24.15;17.20;;;5.00;99.90;;;;;;3444145;41;20161;-74
2020/12/01 02:09:55;;;;;;;24.42;17.48;;;4.90;99.90;;;;;;3444075;41;20112;-74
2020/12/01 02:12:24;;;;;;;23.97;17.77;;;4.90;99.90;;;;;;3444065;41;20165;-74
2020/12/01 02:14:57;;;;;;;25.13;18.65;;;4.80;99.90;;;;;;3441515;41;20169;-74
2020/12/01 02:17:31;;;;;;;24.00;18.52;;;4.70;99.90;;;;;;3434565;41;20120;-74
2020/12/01 02:20:03;;;;;;;24.65;18.98;;;4.60;99.90;;;;;;3434561;41;20127;-74
2020/12/01 02:22:29;;;;;;;26.65;19.48;;;4.50;99.90;;;;;;3435025;34;20316;-74
2020/12/01 02:24:57;;;;;;;27.40;19.17;;;4.50;99.90;;;;;;3436605;41;20124;-74
2020/12/01 02:27:25;;;;;;;25.40;19.40;;;4.50;99.90;;;;;;3443773;34;20204;-74
2020/12/01 02:29:54;;;;;;;29.50;19.40;;;4.50;99.90;;;;;;3451361;33;20185;-74
2020/12/01 02:32:24;;;;;;;29.73;20.55;;;4.50;99.90;;;;;;3443963;41;20267;-74
2020/12/01 02:34:51;;;;;;;28.70;20.60;;;4.40;99.90;;;;;;3442329;41;20104;-75
2020/12/01 02:37:21;;;;;;;28.00;19.88;;;4.50;99.90;;;;;;3443890;34;20141;-74
2020/12/01 02:39:47;;;;;;;28.23;20.38;;;4.50;99.90;;;;;;3434792;34;20120;-74
2020/12/01 02:42:20;;;;;;;29.60;20.83;;;4.50;99.90;;;;;;3434468;41;20227;-74
2020/12/01 02:44:46;;;;;;;29.50;21.40;;;4.60;99.90;;;;;;3476219;34;20201;-74
2020/12/01 02:47:12;;;;;;;30.27;21.17;;;4.50;99.90;;;;;;3444136;41;20128;-74
2020/12/01 02:49:38;;;;;;;29.42;21.55;;;4.50;99.90;;;;;;3444356;41;20544;-74
2020/12/01 02:52:05;;;;;;;28.38;20.70;;;4.40;99.90;;;;;;3443594;41;20662;-74
2020/12/01 02:54:31;;;;;;;24.63;17.88;;;4.40;99.90;;;;;;3443788;41;20119;-74
2020/12/01 02:56:57;;;;;;;23.05;17.40;;;4.60;99.90;;;;;;3446328;33;20611;-74
2020/12/01 02:59:23;;;;;;;21.55;16.27;;;4.80;99.90;;;;;;3434803;41;20108;-74
2020/12/01 03:01:49;;;;;;;22.98;16.60;;;5.10;99.90;;;;;;3434730;41;20144;-74
2020/12/01 03:04:15;;;;;;;23.48;16.98;;;5.10;99.90;;;;;;3434266;41;20576;-74
2020/12/01 03:06:41;;;;;;;22.13;15.95;;;5.20;99.90;;;;;;3455479;34;20127;-74
2020/12/01 03:09:11;;;;;;;24.23;17.52;;;5.20;99.90;;;;;;3443761;41;20134;-74
2020/12/01 03:11:37;;;;;;;25.25;18.95;;;5.10;99.90;;;;;;3444201;33;20116;-74
2020/12/01 03:14:03;;;;;;;25.60;19.35;;;5.10;99.90;;;;;;3443670;41;20171;-74
2020/12/01 03:16:28;;;;;;;27.02;19.35;;;5.20;99.90;;;;;;3436990;41;20132;-74
2020/12/01 03:18:54;;;;;;;27.42;19.17;;;5.20;99.90;;;;;;3434231;41;20205;-74
2020/12/01 03:21:20;;;;;;;25.00;18.17;;;5.20;99.90;;;;;;3434172;41;20128;-74
2020/12/01 03:23:46;;;;;;;27.20;18.60;;;5.10;99.90;;;;;;3434073;41;20123;-74
2020/12/01 03:26:15;;;;;;;22.10;16.40;;;5.20;99.90;;;;;;3439295;41;20143;-74
2020/12/01 03:28:42;;;;;;;22.02;15.88;;;5.30;99.90;;;;;;3443379;41;20265;-74
2020/12/01 03:31:09;;;;;;;26.02;19.17;;;5.20;99.90;;;;;;3443649;41;20158;-74
2020/12/01 03:33:35;;;;;;;26.10;18.05;;;5.20;99.90;;;;;;3443718;41;20162;-74
2020/12/01 03:36:02;;;;;;;29.35;20.08;;;5.20;99.90;;;;;;3438854;33;20112;-74
2020/12/01 03:38:28;;;;;;;26.50;18.75;;;5.20;99.90;;;;;;3434067;41;20139;-74
2020/12/01 03:40:53;;;;;;;26.88;18.88;;;5.10;99.90;;;;;;3433898;41;20104;-74
2020/12/01 03:43:19;;;;;;;29.17;19.67;;;5.10;99.90;;;;;;3433960;41;20736;-74
2020/12/01 03:45:45;;;;;;;26.02;19.13;;;5.00;99.90;;;;;;3437431;41;20112;-74
2020/12/01 03:48:12;;;;;;;26.13;18.77;;;5.10;99.90;;;;;;3443245;41;20111;-74
2020/12/01 03:50:37;;;;;;;26.55;19.45;;;5.00;99.90;;;;;;3443182;41;20183;-74
2020/12/01 03:53:04;;;;;;;23.75;16.65;;;5.10;99.90;;;;;;3443201;41;20111;-74
2020/12/01 03:55:30;;;;;;;24.00;17.10;;;5.10;99.90;;;;;;3434397;41;20119;-74
2020/12/01 03:57:56;;;;;;;24.38;16.42;;;5.20;99.90;;;;;;3434134;41;20124;-74
2020/12/01 04:00:24;;;;;;;23.52;16.20;;;5.30;99.90;;;;;;3433936;41;20692;-74
2020/12/01 04:02:51;;;;;;;26.67;18.98;;;5.30;99.90;;;;;;3433870;41;20651;-74
2020/12/01 04:05:18;;;;;;;22.75;15.75;;;5.30;99.90;;;;;;3440966;41;20138;-74
2020/12/01 04:07:44;;;;;;;23.38;17.13;;;5.30;99.90;;;;;;3443468;41;20107;-74
2020/12/01 04:10:13;;;;;;;26.00;17.83;;;5.30;99.90;;;;;;3443728;41;20156;-74
2020/12/01 04:12:40;;;;;;;25.08;18.98;;;5.30;99.90;;;;;;3443779;41;20209;-74
2020/12/01 04:15:06;;;;;;;28.70;19.98;;;5.20;99.90;;;;;;3438370;34;20143;-74
2020/12/01 04:17:31;;;;;;;29.88;20.45;;;5.10;99.90;;;;;;3433716;41;20237;-74
2020/12/01 04:19:58;;;;;;;29.33;21.13;;;5.10;99.90;;;;;;3433958;41;20604;-74
2020/12/01 04:22:24;;;;;;;32.63;21.73;;;5.00;99.90;;;;;;3433743;41;20108;-74
2020/12/01 04:24:49;;;;;;;32.00;22.08;;;5.00;99.90;;;;;;3439328;41;20130;-74
2020/12/01 04:27:16;;;;;;;35.28;22.52;;;4.90;99.90;;;;;;3443726;41;20119;-74
2020/12/01 04:29:42;;;;;;;30.30;21.40;;;4.90;99.90;;;;;;3443211;41;20127;-74
2020/12/01 04:32:09;;;;;;;34.10;22.67;;;4.90;99.90;;;;;;3514361;33;20195;-74
2020/12/01 04:34:35;;;;;;;29.08;20.63;;;4.80;99.90;;;;;;3453468;33;20615;-74
2020/12/01 04:37:02;;;;;;;30.38;21.48;;;4.80;99.90;;;;;;3433799;41;20201;-74
2020/12/01 04:39:29;;;;;;;33.85;21.95;;;4.80;99.90;;;;;;3434202;34;20112;-74
2020/12/01 04:41:55;;;;;;;33.97;23.33;;;4.80;99.90;;;;;;3437955;34;20122;-74
2020/12/01 04:44:49;;;;;;;31.05;21.75;;;4.80;99.90;;;;;;3442935;41;20615;-74
2020/12/01 04:47:20;;;;;;;32.00;22.00;;;4.80;99.90;;;;;;3443186;34;20112;-74
2020/12/01 04:49:53;;;;;;;34.33;22.17;;;4.80;99.90;;;;;;3443983;34;20116;-74
2020/12/01 04:52:30;;;;;;;33.10;22.73;;;4.80;99.90;;;;;;3443014;34;20127;-74
2020/12/01 04:55:30;;;;;;;32.10;21.23;;;4.80;99.90;;;;;;3443006;41;20126;-74
2020/12/01 04:57:56;;;;;;;28.45;18.73;;;4.80;99.90;;;;;;3512028;33;20119;-74
2020/12/01 05:00:43;;;;;;;33.58;21.17;;;4.80;99.90;;;;;;3443955;41;20139;-74
2020/12/01 05:03:21;;;;;;;31.58;20.98;;;4.80;99.90;;;;;;3457458;33;20128;-74
2020/12/01 05:08:58;;;;;;;29.50;20.13;;;4.80;99.90;;;;;;3444844;41;20200;-74
2020/12/01 05:11:40;;;;;;;26.65;18.88;;;4.80;99.90;;;;;;3440460;34;20151;-74
2020/12/01 05:14:37;;;;;;;29.25;20.05;;;4.90;99.90;;;;;;3435139;34;20112;-74
2020/12/01 05:17:27;;;;;;;27.52;18.55;;;4.90;99.90;;;;;;3453730;34;20685;-74
2020/12/01 05:19:53;;;;;;;24.48;17.98;;;4.90;99.90;;;;;;3435339;34;20119;-74
2020/12/01 05:22:21;;;;;;;26.55;18.58;;;4.80;99.90;;;;;;3435480;41;20166;-74
2020/12/01 05:24:52;;;;;;;26.67;18.52;;;4.90;99.90;;;;;;3445131;34;20140;-74
2020/12/01 05:27:36;;;;;;;24.83;16.73;;;4.90;99.90;;;;;;3434944;41;20159;-74
2020/12/01 05:30:23;;;;;;;27.35;18.67;;;4.90;99.90;;;;;;3438775;41;20187;-77
2020/12/01 05:32:57;;;;;;;25.40;18.17;;;4.90;99.90;;;;;;3446928;33;20128;-74
2020/12/01 05:35:26;;;;;;;25.88;17.63;;;4.90;99.90;;;;;;3444283;41;20131;-74
2020/12/01 05:38:13;;;;;;;25.95;18.20;;;4.90;99.90;;;;;;3442657;41;20127;-74
2020/12/01 05:40:48;;;;;;;25.88;17.77;;;4.90;99.90;;;;;;3434968;41;20120;-74
2020/12/01 05:43:34;;;;;;;27.63;18.38;;;4.90;99.90;;;;;;3434439;41;20126;-74
2020/12/01 05:46:35;;;;;;;28.90;17.92;;;4.90;99.90;;;;;;3435214;34;20213;-73
2020/12/01 05:49:27;;;;;;;26.67;19.05;;;4.90;99.90;;;;;;3443962;34;20128;-74
2020/12/01 05:52:08;;;;;;;23.75;17.02;;;4.90;99.90;;;;;;3439252;41;20143;-74
2020/12/01 05:54:40;;;;;;;25.02;18.33;;;4.90;99.90;;;;;;3443679;34;20127;-73
2020/12/01 05:57:21;;;;;;;28.23;18.92;;;4.90;99.90;;;;;;3443397;41;20122;-73
2020/12/01 05:59:55;;;;;;;28.35;19.55;;;4.90;99.90;;;;;;3442851;41;20115;-73
2020/12/01 06:02:44;;;;;;;27.60;18.75;;;4.90;99.90;;;;;;3434610;41;20189;-73
2020/12/01 06:05:14;;;;;;;29.08;18.65;;;4.80;99.90;;;;;;3434212;41;20749;-73
2020/12/01 06:07:45;;;;;;;28.30;19.10;;;4.80;99.90;;;;;;3433732;41;20141;-73
2020/12/01 06:10:36;;;;;;;31.00;19.48;;;4.80;99.90;;;;;;3442690;41;20614;-73
2020/12/01 06:13:21;;;;;;;28.95;20.13;;;4.80;99.90;;;;;;3443211;41;20136;-74
2020/12/01 06:16:07;;;;;;;29.17;19.75;;;4.80;99.90;;;;;;3435594;41;20132;-74
2020/12/01 06:18:50;;;;;;;30.73;20.33;;;4.80;99.90;;;;;;3429908;41;20159;-74
2020/12/01 06:21:24;;;;;;;29.45;19.88;;;4.80;99.90;;;;;;3433140;41;20139;-74
2020/12/01 06:24:07;;;;;;;30.90;20.33;;;4.80;99.90;;;;;;3433559;41;20151;-74
2020/12/01 06:27:20;;;;;;;30.15;20.13;;;4.80;99.90;;;;;;3432483;41;20616;-74
2020/12/01 06:30:00;;;;;;;31.80;20.60;;;4.80;99.90;;;;;;3450854;34;20776;-73
2020/12/01 06:32:57;;;;;;;29.65;19.45;;;4.80;99.90;;;;;;3427527;41;20143;-73
2020/12/01 06:35:43;;;;;;;28.98;20.13;;;4.80;99.90;;;;;;3423281;41;20817;-74
2020/12/01 06:38:46;;;;;;;31.20;20.80;;;4.80;99.90;;;;;;3441695;41;20131;-74
2020/12/01 06:41:14;;;;;;;29.15;19.77;;;4.80;99.90;;;;;;3437257;41;20999;-73
2020/12/01 06:43:51;;;;;;;30.45;19.38;;;4.80;99.90;;;;;;3433356;34;20119;-73
2020/12/01 06:46:19;;;;;;;27.25;18.13;;;4.80;99.90;;;;;;3470276;34;20131;-73
2020/12/01 06:48:48;;;;;;;29.50;19.52;;;4.80;99.90;;;;;;3433748;41;20163;-75
2020/12/01 06:51:16;;;;;;;30.00;19.85;;;4.80;99.90;;;;;;3433470;41;20132;-75
2020/12/01 06:53:42;;;;;;;26.25;18.60;;;4.80;99.90;;;;;;3426461;41;20144;-73
2020/12/01 06:56:11;;;;;;;25.77;17.50;;;4.80;99.90;;;;;;3437365;34;20402;-73
2020/12/01 06:58:42;;;;;;;26.60;17.67;;;4.90;99.90;;;;;;3423810;41;20123;-73
2020/12/01 07:01:27;;;;;;;29.40;19.55;;;4.80;99.90;;;;;;3423612;41;20128;-73
2020/12/01 07:04:12;;;;;;;27.88;17.70;;;4.80;99.90;;;;;;3421568;41;20133;-73
2020/12/01 07:06:54;;;;;;;29.10;19.20;;;4.80;99.90;;;;;;3416044;41;20125;-71
2020/12/01 07:09:27;;;;;;;28.92;18.10;;;4.70;99.90;;;;;;3424205;41;20139;-71
2020/12/01 07:12:07;;;;;;;30.05;18.30;;;4.70;99.90;;;;;;3424817;34;20140;-72
2020/12/01 07:14:42;;;;;;;28.10;18.08;;;4.70;99.90;;;;;;3423470;41;20600;-72
2020/12/01 07:17:14;;;;;;;29.35;19.30;;;4.60;99.90;;;;;;3424653;41;20127;-71
2020/12/01 07:19:51;;;;;;;28.67;18.85;;;4.60;99.90;;;;;;3424214;34;20120;-71
2020/12/01 07:22:20;;;;;;;31.45;18.88;;;4.60;99.90;;;;;;3423882;34;20155;-71
2020/12/01 07:25:03;;;;;;;28.75;18.33;;;4.60;99.90;;;;;;3426251;34;20132;-71
2020/12/01 07:27:53;;;;;;;30.17;19.10;;;4.60;99.90;;;;;;3431425;34;20186;-72
2020/12/01 07:30:26;;;;;;;26.15;17.80;;;4.50;99.90;;;;;;3435288;34;20136;-72
2020/12/01 07:32:58;;;;;;;26.98;18.45;;;4.50;99.90;;;;;;3422512;41;20151;-73
2020/12/01 07:35:39;;;;;;;29.08;17.92;;;4.50;99.90;;;;;;3424875;34;20112;-73
2020/12/01 07:38:20;;;;;;;28.88;19.20;;;4.60;99.90;;;;;;3423735;41;20124;-73
2020/12/01 07:40:55;;;;;;;28.67;18.13;;;4.60;99.90;;;;;;3424297;41;20127;-73
2020/12/01 07:43:22;;;;;;;28.20;19.23;;;4.60;99.90;;;;;;3424448;41;20554;-72
2020/12/01 07:45:49;;;;;;;27.98;18.80;;;4.60;99.90;;;;;;3443079;34;20150;-72
2020/12/01 07:48:18;;;;;;;32.72;19.40;;;4.60;99.90;;;;;;3431318;41;20195;-72
2020/12/01 07:50:44;;;;;;;29.63;19.13;;;4.70;99.90;;;;;;3429505;41;20120;-73
2020/12/01 07:53:19;;;;;;;32.00;19.98;;;4.70;99.90;;;;;;3423347;41;20174;-73
2020/12/01 07:55:56;;;;;;;28.83;18.40;;;4.70;99.90;;;;;;3444725;34;20116;-74
2020/12/01 07:58:28;;;;;;;31.10;19.60;;;4.70;99.90;;;;;;3424075;41;20171;-74
2020/12/01 08:01:02;;;;;;;29.45;19.42;;;4.80;99.90;;;;;;3425494;41;20152;-75
2020/12/01 08:03:32;;;;;;;31.42;19.85;;;4.80;99.90;;;;;;3423928;34;20164;-75
2020/12/01 08:06:04;;;;;;;31.85;18.50;;;4.80;99.90;;;;;;3433196;34;20142;-74
2020/12/01 08:08:34;;;;;;;29.38;19.23;;;4.90;99.90;;;;;;3423829;34;20151;-73
2020/12/01 08:11:05;;;;;;;27.70;19.08;;;4.90;99.90;;;;;;3422869;34;20132;-72
2020/12/01 08:13:34;;;;;;;31.97;19.73;;;4.90;99.90;;;;;;3420280;34;20272;-72
2020/12/01 08:16:18;;;;;;;26.13;18.42;;;5.00;99.90;;;;;;3424510;34;20682;-73
2020/12/01 08:18:45;;;;;;;29.50;19.42;;;5.00;99.90;;;;;;3439195;34;20135;-74
2020/12/01 08:21:14;;;;;;;30.17;19.77;;;5.00;99.90;;;;;;3423771;34;20128;-74
2020/12/01 08:23:45;;;;;;;32.83;19.63;;;5.10;99.90;;;;;;3423473;34;20128;-75
2020/12/01 08:26:20;;;;;;;31.80;19.60;;;5.10;99.90;;;;;;3424591;34;20124;-74
2020/12/01 08:29:01;;;;;;;28.70;18.52;;;5.10;99.90;;;;;;3423708;41;20105;-72
2020/12/01 08:31:42;;;;;;;32.95;19.25;;;5.20;99.90;;;;;;3422452;41;20323;-72
2020/12/01 08:34:35;;;;;;;30.48;19.75;;;5.30;99.90;;;;;;3429048;41;20143;-72
2020/12/01 08:37:07;;;;;;;31.00;20.15;;;5.30;99.90;;;;;;3417751;34;20152;-72
2020/12/01 08:39:44;;;;;;;28.58;19.05;;;5.40;99.90;;;;;;3426146;34;20172;-72
2020/12/01 08:42:33;;;;;;;29.65;19.35;;;5.40;99.90;;;;;;3429608;34;20100;-71
2020/12/01 08:45:24;;;;;;;29.25;19.02;;;5.50;99.90;;;;;;3425961;41;20132;-73
2020/12/01 08:48:00;;;;;;;28.13;18.55;;;5.50;99.90;;;;;;3436097;34;20236;-73
2020/12/01 08:50:38;;;;;;;34.42;21.30;;;5.50;99.90;;;;;;3426740;41;20123;-74
2020/12/01 08:53:09;;;;;;;32.53;20.20;;;5.60;99.90;;;;;;3432331;41;20151;-74
2020/12/01 08:55:46;;;;;;;30.90;19.02;;;5.60;99.90;;;;;;3437175;34;20383;-74
2020/12/01 08:58:27;;;;;;;28.50;19.05;;;5.70;99.90;;;;;;3432449;41;20139;-75
2020/12/01 09:01:14;;;;;;;27.65;17.42;;;5.80;99.90;;;;;;3431195;41;20136;-76
2020/12/01 09:04:01;;;;;;;30.27;19.13;;;5.80;99.90;;;;;;3437312;34;20124;-76
2020/12/01 09:06:35;;;;;;;29.42;18.65;;;5.80;99.90;;;;;;3434332;41;20132;-76
2020/12/01 09:09:07;;;;;;;28.83;18.08;;;5.80;99.90;;;;;;3433933;41;20116;-75
2020/12/01 09:17:43;;;;;;;27.45;18.08;;;6.00;99.90;;;;;;3433812;41;20287;-74
2020/12/01 09:21:50;;;;;;;30.92;18.55;;;6.20;99.90;;;;;;3463103;34;20148;-74
2020/12/01 09:23:36;;;;;;;27.42;18.77;;;6.20;99.90;;;;;;3432012;34;20130;-75
2020/12/01 09:26:16;;;;;;;28.42;17.75;;;6.40;99.90;;;;;;3444648;34;20626;-75
2020/12/01 09:28:48;;;;;;;29.05;18.33;;;6.30;99.90;;;;;;3433772;34;20603;-74
2020/12/01 09:31:14;;;;;;;28.02;18.60;;;6.30;99.90;;;;;;3434274;41;20522;-74
2020/12/01 09:33:40;;;;;;;27.30;17.48;;;6.50;99.90;;;;;;3434223;41;20128;-75
2020/12/01 09:36:06;;;;;;;34.00;21.77;;;6.40;99.90;;;;;;3433643;41;20104;-75
2020/12/01 09:38:32;;;;;;;26.60;18.25;;;6.40;99.90;;;;;;3434409;41;20240;-73
2020/12/01 09:40:58;;;;;;;25.85;16.80;;;6.50;99.90;;;;;;3431944;41;20527;-74
2020/12/01 09:43:41;;;;;;;29.95;17.95;;;6.60;99.90;;;;;;3434008;41;20160;-74
2020/12/01 09:46:11;;;;;;;25.83;17.33;;;6.40;99.90;;;;;;3437991;34;20195;-74
2020/12/01 09:48:40;;;;;;;28.77;18.13;;;6.50;99.90;;;;;;3431973;41;20116;-74
2020/12/01 09:51:06;;;;;;;27.40;18.42;;;6.50;99.90;;;;;;3426719;34;20120;-73
2020/12/01 09:54:05;;;;;;;25.75;16.80;;;6.60;99.90;;;;;;3424878;41;20548;-73
2020/12/01 09:56:41;;;;;;;29.55;18.55;;;6.60;99.90;;;;;;3424983;41;20116;-74
2020/12/01 10:00:11;;;;;;;30.88;18.33;;;6.60;99.90;;;;;;3424390;41;20628;-73
2020/12/01 10:12:27;;;;;;;23.25;15.88;;;6.90;99.90;;;;;;3424428;41;20132;-74
2020/12/01 10:36:22;;;;;;;21.13;13.38;;;7.00;99.60;;;;;;3424710;41;20124;-73
2020/12/01 10:38:48;;;;;;;19.27;12.65;;;7.00;99.90;;;;;;3432979;41;20116;-73
2020/12/01 10:41:14;;;;;;;19.45;12.48;;;7.10;99.80;;;;;;3425938;41;20132;-73
2020/12/01 10:43:40;;;;;;;18.15;12.48;;;7.10;99.30;;;;;;3424026;41;20160;-74
2020/12/01 10:46:09;;;;;;;21.63;13.45;;;7.10;99.20;;;;;;3424332;41;20613;-75
2020/12/01 10:48:34;;;;;;;19.33;13.00;;;7.20;99.50;;;;;;3431824;41;20115;-75
2020/12/01 10:51:00;;;;;;;19.13;12.88;;;7.30;99.60;;;;;;3433918;41;20739;-74
2020/12/01 10:53:26;;;;;;;17.92;11.98;;;7.20;99.90;;;;;;3433562;41;20570;-73
2020/12/01 10:55:52;;;;;;;18.10;12.38;;;7.20;99.90;;;;;;3433843;41;20543;-74
2020/12/01 10:58:18;;;;;;;19.35;12.93;;;7.20;99.90;;;;;;3432342;41;20119;-74
2020/12/01 11:00:44;;;;;;;17.33;11.85;;;7.00;99.90;;;;;;3433768;41;20132;-73
2020/12/01 11:03:09;;;;;;;19.50;11.90;;;7.00;99.90;;;;;;3433918;41;20122;-73
2020/12/01 11:05:35;;;;;;;17.45;11.85;;;7.00;99.90;;;;;;3433945;41;20123;-74
2020/12/01 11:08:01;;;;;;;15.50;10.90;;;7.10;99.90;;;;;;3433728;41;20488;-74
2020/12/01 11:10:27;;;;;;;17.55;11.60;;;7.00;99.90;;;;;;3433728;41;20438;-74
2020/12/01 11:12:53;;;;;;;18.50;12.25;;;6.70;99.90;;;;;;3433885;41;20120;-74
2020/12/01 11:15:19;;;;;;;18.42;12.77;;;6.70;99.90;;;;;;3433709;41;20128;-74
2020/12/01 11:17:45;;;;;;;17.73;11.68;;;6.60;99.90;;;;;;3433631;41;20127;-74
2020/12/01 11:20:13;;;;;;;23.33;13.82;;;6.70;99.90;;;;;;3433353;41;20136;-75
2020/12/01 11:22:39;;;;;;;31.88;26.85;;;6.70;99.90;;;;;;3458433;34;20124;-76
2020/12/01 11:26:20;;;;;;;145.65;85.25;;;6.60;99.90;;;;;;5108255;27;20363;-76
2020/12/01 11:28:50;;;;;;;18.23;12.40;;;6.50;99.90;;;;;;5107707;28;20047;-75
2020/12/01 11:31:19;;;;;;;25.42;18.02;;;6.50;99.90;;;;;;5107904;28;20085;-76
2020/12/01 11:33:59;;;;;;;21.00;13.60;;;6.50;99.90;;;;;;5106439;28;20081;-76
2020/12/01 11:36:25;;;;;;;17.00;10.55;;;6.40;99.90;;;;;;5107764;28;20039;-76
2020/12/01 11:38:51;;;;;;;16.63;10.85;;;6.50;99.90;;;;;;5108265;28;20061;-76
2020/12/01 11:41:17;;;;;;;16.83;12.20;;;6.30;99.90;;;;;;5108573;28;20032;-76
2020/12/01 11:43:43;;;;;;;13.55;9.40;;;6.40;99.90;;;;;;5094673;28;20560;-74
2020/12/01 11:46:10;;;;;;;14.93;10.63;;;6.40;99.90;;;;;;5103671;28;20051;-74
2020/12/01 11:48:36;;;;;;;15.77;10.70;;;6.50;99.90;;;;;;5088418;28;20040;-74
2020/12/01 11:51:02;;;;;;;10.65;8.20;;;6.50;99.90;;;;;;5087651;28;20499;-75
2020/12/01 11:53:28;;;;;;;9.43;6.95;;;6.60;99.90;;;;;;5088590;28;20533;-76
2020/12/01 11:55:54;;;;;;;16.85;9.93;;;6.50;99.90;;;;;;5106156;28;20051;-76
2020/12/01 11:58:20;;;;;;;8.38;6.50;;;6.40;99.90;;;;;;5107811;28;20114;-75
2020/12/01 12:00:46;;;;;;;29.90;18.08;;;6.60;99.90;;;;;;5107725;28;20036;-76
2020/12/01 12:03:12;;;;;;;30.20;17.60;;;6.60;99.90;;;;;;5107770;28;20035;-76
2020/12/01 12:05:37;;;;;;;108.43;50.05;;;6.50;99.90;;;;;;5107614;28;20154;-75
2020/12/01 12:08:03;;;;;;;19.48;11.55;;;6.50;99.90;;;;;;5107209;28;20127;-76
2020/12/01 12:10:29;;;;;;;45.47;22.38;;;6.60;99.90;;;;;;5107667;28;20116;-76
2020/12/01 12:12:55;;;;;;;14.15;8.38;;;6.70;99.90;;;;;;5107630;28;20078;-76
2020/12/01 12:15:21;;;;;;;50.42;21.83;;;6.50;99.90;;;;;;5107458;28;20054;-76
2020/12/01 12:17:47;;;;;;;232.70;88.03;;;6.60;99.90;;;;;;5107321;28;20371;-76
2020/12/01 12:20:12;;;;;;;39.65;17.92;;;6.70;99.90;;;;;;5107612;28;20093;-76
2020/12/01 12:22:38;;;;;;;231.20;83.75;;;6.70;99.90;;;;;;5107666;28;20035;-76
2020/12/01 12:25:04;;;;;;;19.77;9.75;;;6.80;99.90;;;;;;5107830;28;20052;-76
2020/12/01 12:27:32;;;;;;;71.57;25.52;;;6.80;99.90;;;;;;5106256;28;20537;-76
2020/12/01 12:29:58;;;;;;;32.40;14.88;;;6.80;99.90;;;;;;5107287;28;20039;-77
2020/12/01 12:32:24;;;;;;;25.63;11.25;;;6.90;99.90;;;;;;5107640;28;20106;-77
2020/12/01 12:34:50;;;;;;;9.68;6.50;;;6.80;99.90;;;;;;5107692;28;20047;-76
2020/12/01 12:37:16;;;;;;;62.83;25.70;;;6.90;99.90;;;;;;5093938;28;20032;-77
2020/12/01 12:39:42;;;;;;;100.57;58.70;;;6.90;99.90;;;;;;5092818;28;20047;-75
2020/12/01 12:42:08;;;;;;;13.43;7.57;;;6.90;99.90;;;;;;5089697;28;20495;-74
2020/12/01 12:44:34;;;;;;;5.47;4.25;;;6.90;99.90;;;;;;5082638;28;20456;-77
2020/12/01 12:46:59;;;;;;;3.67;3.30;;;6.90;99.90;;;;;;5087795;28;20044;-75
2020/12/01 12:49:25;;;;;;;32.88;14.70;;;6.80;99.90;;;;;;5078918;28;20055;-75
2020/12/01 12:51:51;;;;;;;27.55;11.35;;;6.90;99.90;;;;;;5084107;28;20166;-75
2020/12/01 12:54:17;;;;;;;115.93;35.17;;;7.00;99.90;;;;;;5086793;28;20044;-75
2020/12/01 12:56:43;;;;;;;99.53;32.90;;;7.00;99.90;;;;;;5081518;28;20123;-75
2020/12/01 12:59:09;;;;;;;36.45;17.85;;;6.90;99.90;;;;;;5087142;28;20048;-74
2020/12/01 13:01:35;;;;;;;22.85;11.93;;;6.80;99.90;;;;;;5090201;28;20040;-75
2020/12/01 13:04:01;;;;;;;186.60;109.50;;;6.80;99.90;;;;;;5089368;28;20036;-75
2020/12/01 13:06:26;;;;;;;46.75;31.15;;;6.90;99.90;;;;;;5090886;28;20064;-75
2020/12/01 13:08:52;;;;;;;55.20;40.08;;;7.10;99.90;;;;;;5091224;28;20047;-75
2020/12/01 13:11:18;;;;;;;47.22;33.78;;;7.00;99.90;;;;;;5084606;28;20039;-75
2020/12/01 13:13:44;;;;;;;3.05;2.83;;;7.00;99.90;;;;;;5069382;28;20154;-75
2020/12/01 13:16:10;;;;;;;2.35;2.15;;;6.90;99.90;;;;;;5069189;28;20033;-75
2020/12/01 13:18:36;;;;;;;2.25;2.05;;;7.10;99.90;;;;;;5071176;28;20048;-75
2020/12/01 13:21:02;;;;;;;1.98;1.75;;;7.10;99.90;;;;;;5071913;28;20040;-75
2020/12/01 13:23:28;;;;;;;1.50;1.40;;;7.00;99.90;;;;;;5071424;28;20117;-75
2020/12/01 13:25:54;;;;;;;2.15;1.95;;;7.00;99.90;;;;;;5069540;28;20090;-75
2020/12/01 13:28:20;;;;;;;1.17;1.08;;;7.10;99.90;;;;;;5072445;28;20127;-75
2020/12/01 13:30:45;;;;;;;1.88;1.77;;;6.90;99.90;;;;;;5072505;28;20045;-74
2020/12/01 13:33:11;;;;;;;1.40;1.20;;;7.00;99.90;;;;;;5072731;28;20567;-74
2020/12/01 13:35:38;;;;;;;2.00;1.90;;;6.90;99.90;;;;;;5069999;28;20123;-74
2020/12/01 13:38:04;;;;;;;3.63;3.33;;;6.80;99.90;;;;;;5069505;28;20040;-74
2020/12/01 13:40:29;;;;;;;1.67;1.42;;;6.70;99.90;;;;;;5069257;28;20524;-74